Time;durP1;ratioP1;P1;durP2;ratioP2;P2;SDS_P1;SDS_P2;PMS_P1;PMS_P2;Temp;Humidity;BMP_temperature;BMP_pressure;BME280_temperature;BME280_humidity;BME280_pressure;Samples;Min_cycle;Max_cycle;Signal;HPM_P1;HPM_P2
2021/08/18 00:01:22;;;;;;;15.40;10.58;;;;;;;20.10;80.51;100685.18;1729551;82;21264;-67
2021/08/18 00:03:55;;;;;;;17.92;10.00;;;;;;;20.09;80.46;100684.02;1730421;82;21276;-66
2021/08/18 00:06:29;;;;;;;14.95;10.40;;;;;;;20.07;80.42;100679.40;1730161;83;21272;-66
2021/08/18 00:09:01;;;;;;;17.20;10.98;;;;;;;20.02;80.49;100675.98;1728776;82;21271;-66
2021/08/18 00:11:36;;;;;;;15.85;10.18;;;;;;;20.01;80.53;100671.66;1729392;82;21247;-67
2021/08/18 00:14:10;;;;;;;13.90;10.35;;;;;;;19.99;80.66;100669.70;1732010;82;21268;-67
2021/08/18 00:16:44;;;;;;;14.73;10.85;;;;;;;20.00;80.68;100669.20;1728837;82;21276;-67
2021/08/18 00:19:18;;;;;;;16.87;11.03;;;;;;;19.98;80.66;100673.38;1728133;82;21189;-66
2021/08/18 00:21:51;;;;;;;15.03;10.85;;;;;;;19.97;80.59;100669.06;1730197;82;21331;-66
2021/08/18 00:24:24;;;;;;;18.15;10.75;;;;;;;19.96;80.54;100667.44;1710918;83;21303;-67
2021/08/18 00:26:58;;;;;;;16.85;10.45;;;;;;;19.94;80.45;100667.30;1699853;84;21335;-67
2021/08/18 00:29:32;;;;;;;12.40;10.65;;;;;;;19.92;80.44;100671.95;1718565;82;21299;-66
2021/08/18 00:32:07;;;;;;;14.60;10.13;;;;;;;19.90;80.49;100675.30;1734575;82;21311;-67
2021/08/18 00:34:39;;;;;;;17.95;11.65;;;;;;;19.87;80.49;100675.17;1730533;82;21260;-66
2021/08/18 00:37:13;;;;;;;17.48;10.60;;;;;;;19.86;80.47;100671.38;1709469;83;21283;-66
2021/08/18 00:39:46;;;;;;;16.90;10.43;;;;;;;19.84;80.53;100668.92;1672787;84;21278;-67
2021/08/18 00:42:20;;;;;;;14.38;10.80;;;;;;;19.84;80.50;100672.08;1665947;85;21306;-67
2021/08/18 00:44:55;;;;;;;13.10;10.45;;;;;;;19.81;80.45;100670.61;1683668;85;21281;-67
2021/08/18 00:47:28;;;;;;;16.15;11.08;;;;;;;19.80;80.46;100672.14;1733186;82;22129;-66
2021/08/18 00:50:01;;;;;;;14.90;11.48;;;;;;;19.76;80.38;100670.34;1729118;82;21209;-66
2021/08/18 00:52:35;;;;;;;15.05;10.18;;;;;;;19.72;80.35;100665.59;1728656;82;21212;-67
2021/08/18 00:55:14;;;;;;;14.93;10.98;;;;;;;19.68;80.38;100668.30;1728640;82;21248;-67
2021/08/18 00:57:47;;;;;;;16.27;10.53;;;;;;;19.63;80.42;100667.50;1733500;81;21291;-67
2021/08/18 01:00:20;;;;;;;19.23;11.57;;;;;;;19.58;80.59;100665.09;1745622;82;21263;-66
2021/08/18 01:02:54;;;;;;;20.05;11.12;;;;;;;19.50;80.77;100670.00;1748329;81;21323;-67
2021/08/18 01:05:30;;;;;;;20.00;10.93;;;;;;;19.46;80.98;100668.20;1744997;81;21161;-66
2021/08/18 01:08:03;;;;;;;13.15;10.40;;;;;;;19.42;81.10;100669.58;1743845;82;22115;-66
2021/08/18 01:10:37;;;;;;;16.52;10.65;;;;;;;19.39;81.20;100669.94;1728113;82;21193;-67
2021/08/18 01:13:10;;;;;;;16.15;11.30;;;;;;;19.36;81.19;100669.00;1732314;82;21327;-66
2021/08/18 01:15:43;;;;;;;13.60;10.55;;;;;;;19.32;81.11;100666.86;1746144;82;21306;-66
2021/08/18 01:18:17;;;;;;;19.98;11.10;;;;;;;19.27;81.18;100669.23;1745504;82;21177;-66
2021/08/18 01:20:52;;;;;;;33.20;11.70;;;;;;;19.23;81.20;100671.41;1746887;81;21846;-66
2021/08/18 01:23:26;;;;;;;36.65;12.45;;;;;;;19.18;81.35;100668.97;1745971;82;21180;-66
2021/08/18 01:25:59;;;;;;;21.80;12.10;;;;;;;19.15;81.51;100672.02;1747634;81;21145;-67
2021/08/18 01:28:34;;;;;;;18.82;11.22;;;;;;;19.12;81.58;100667.89;1745826;82;21251;-66
2021/08/18 01:31:07;;;;;;;19.12;11.15;;;;;;;19.10;81.73;100662.44;1745814;81;21411;-66
2021/08/18 01:33:40;;;;;;;16.90;11.18;;;;;;;19.09;81.83;100665.59;1738773;82;21255;-66
2021/08/18 01:36:14;;;;;;;16.23;11.68;;;;;;;19.08;81.90;100663.13;1710618;84;21161;-65
2021/08/18 01:38:48;;;;;;;15.63;10.78;;;;;;;19.07;81.94;100670.25;1729992;83;21197;-66
2021/08/18 01:41:21;;;;;;;16.75;11.57;;;;;;;19.05;81.98;100668.30;1680988;85;21194;-65
2021/08/18 01:43:54;;;;;;;16.80;11.30;;;;;;;19.04;82.08;100665.80;1731222;82;21166;-65
2021/08/18 01:46:28;;;;;;;21.27;11.63;;;;;;;19.01;81.99;100668.84;1679753;85;21194;-65
2021/08/18 01:49:01;;;;;;;17.55;11.93;;;;;;;18.97;82.06;100664.88;1738897;82;21236;-65
2021/08/18 01:51:35;;;;;;;14.87;11.28;;;;;;;18.94;82.13;100667.37;1718981;81;21335;-66
2021/08/18 01:54:08;;;;;;;16.60;11.70;;;;;;;18.93;82.23;100671.06;1745224;82;21291;-65
2021/08/18 01:56:42;;;;;;;18.17;11.90;;;;;;;18.92;82.27;100668.56;1745830;82;21389;-66
2021/08/18 01:59:15;;;;;;;15.90;11.70;;;;;;;18.91;82.32;100670.42;1735538;81;21332;-65
2021/08/18 02:01:48;;;;;;;;;;;;;;;18.88;82.35;100666.79;1730029;83;21367;-65
2021/08/18 02:04:21;;;;;;;15.13;11.75;;;;;;;18.85;82.41;100668.47;1729433;82;20591;-66
2021/08/18 02:06:54;;;;;;;;;;;;;;;18.82;82.56;100669.64;1735201;83;21153;-65
2021/08/18 02:09:27;;;;;;;18.23;11.68;;;;;;;18.81;82.56;100665.86;1732245;82;20229;-65
2021/08/18 02:12:01;;;;;;;17.30;12.18;;;;;;;18.77;82.68;100672.53;1731777;83;21327;-65
2021/08/18 02:14:35;;;;;;;22.27;11.80;;;;;;;18.75;82.71;100671.36;1735007;82;21181;-66
2021/08/18 02:17:10;;;;;;;18.85;12.37;;;;;;;18.73;82.72;100680.01;1731447;83;21264;-67
2021/08/18 02:19:43;;;;;;;18.23;11.73;;;;;;;18.68;82.70;100674.91;1732463;82;21209;-66
2021/08/18 02:22:17;;;;;;;15.38;12.95;;;;;;;18.62;82.79;100681.77;1732677;82;21153;-66
2021/08/18 02:24:50;;;;;;;20.50;12.60;;;;;;;18.59;82.94;100675.48;1731983;82;21348;-66
2021/08/18 02:27:23;;;;;;;19.95;13.28;;;;;;;18.58;83.03;100687.60;1732897;83;21252;-67
2021/08/18 02:29:56;;;;;;;17.77;13.08;;;;;;;18.56;83.00;100678.48;1703370;81;21336;-67
2021/08/18 02:32:29;;;;;;;16.97;12.88;;;;;;;18.56;83.02;100678.48;1684364;85;21228;-68
2021/08/18 02:35:02;;;;;;;19.07;13.13;;;;;;;18.54;83.07;100675.19;1705627;83;21304;-66
2021/08/18 02:37:35;;;;;;;16.05;12.00;;;;;;;18.55;83.09;100677.34;1704636;84;21638;-66
2021/08/18 02:40:11;;;;;;;15.88;11.75;;;;;;;18.54;83.05;100673.02;1736046;82;21176;-66
2021/08/18 02:42:43;;;;;;;15.20;11.83;;;;;;;18.56;83.09;100672.34;1716408;83;21229;-66
2021/08/18 02:45:17;;;;;;;20.23;11.38;;;;;;;18.58;83.10;100667.72;1715607;83;21193;-67
2021/08/18 02:47:51;;;;;;;23.52;12.50;;;;;;;18.61;82.97;100666.84;1715352;83;21185;-66
2021/08/18 02:50:24;;;;;;;;;;;;;;;18.63;82.90;100661.34;1719391;83;21173;-67
2021/08/18 02:52:58;;;;;;;19.60;11.53;;;;;;;18.65;82.84;100664.15;1716605;83;20192;-67
2021/08/18 02:55:31;;;;;;;17.95;11.73;;;;;;;18.66;82.92;100663.16;1715461;83;21169;-68
2021/08/18 02:58:05;;;;;;;19.15;11.65;;;;;;;18.70;82.84;100663.12;1716361;83;21256;-67
2021/08/18 03:00:38;;;;;;;20.23;12.13;;;;;;;18.74;82.64;100663.10;1716910;83;21368;-67
2021/08/18 03:03:12;;;;;;;17.32;11.83;;;;;;;18.78;82.62;100664.88;1719568;83;21205;-66
2021/08/18 03:05:46;;;;;;;20.00;11.70;;;;;;;18.84;82.49;100661.00;1715078;83;21244;-67
2021/08/18 03:08:19;;;;;;;14.87;11.90;;;;;;;18.92;82.33;100661.93;1706472;83;21196;-66
2021/08/18 03:10:53;;;;;;;13.10;11.22;;;;;;;18.99;82.14;100657.05;1659444;86;21167;-67
2021/08/18 03:13:29;;;;;;;17.40;11.48;;;;;;;19.06;81.91;100654.53;1662742;85;21278;-67
2021/08/18 03:16:02;;;;;;;18.67;11.15;;;;;;;19.15;81.60;100651.61;1672606;85;21258;-67
2021/08/18 03:18:35;;;;;;;19.90;12.37;;;;;;;19.23;81.26;100659.96;1677254;85;21334;-67
2021/08/18 03:21:10;;;;;;;15.45;11.60;;;;;;;19.32;80.98;100655.72;1688832;83;21293;-67
2021/08/18 03:23:43;;;;;;;22.07;11.90;;;;;;;19.42;80.71;100658.13;1697693;83;21205;-68
2021/08/18 03:26:17;;;;;;;20.60;10.98;;;;;;;19.53;80.37;100643.58;1719229;83;21299;-67
2021/08/18 03:28:51;;;;;;;15.18;11.20;;;;;;;19.62;79.95;100645.95;1715589;83;21196;-68
2021/08/18 03:31:25;;;;;;;13.25;11.75;;;;;;;19.72;79.48;100649.65;1715592;83;21204;-67
2021/08/18 03:33:58;;;;;;;14.23;11.38;;;;;;;19.83;79.15;100649.16;1716193;83;21500;-67
2021/08/18 03:36:31;;;;;;;11.85;10.63;;;;;;;19.94;78.69;100649.50;1716054;83;21591;-67
2021/08/18 03:39:05;;;;;;;14.10;10.98;;;;;;;20.07;78.22;100648.34;1717027;83;21669;-67
2021/08/18 03:41:39;;;;;;;14.13;10.88;;;;;;;20.21;77.76;100647.96;1716432;83;21205;-67
2021/08/18 03:44:13;;;;;;;;;;;;;;;20.35;77.34;100643.66;1718872;83;21288;-67
2021/08/18 03:46:46;;;;;;;18.48;10.90;;;;;;;20.50;76.96;100641.73;1717812;83;20187;-67
2021/08/18 03:49:19;;;;;;;17.60;10.70;;;;;;;20.64;76.53;100648.81;1717938;83;21240;-70
2021/08/18 03:51:52;;;;;;;16.20;11.60;;;;;;;20.80;76.07;100646.70;1719487;83;21327;-71
2021/08/18 03:54:25;;;;;;;16.23;11.38;;;;;;;20.98;75.49;100644.08;1681497;83;21277;-72
2021/08/18 03:56:59;;;;;;;14.98;10.65;;;;;;;21.18;74.92;100646.41;1661442;86;21305;-72
2021/08/18 03:59:32;;;;;;;17.77;11.10;;;;;;;21.39;74.25;100639.67;1679058;85;21224;-71
2021/08/18 04:02:05;;;;;;;15.20;10.38;;;;;;;21.71;73.30;100646.98;1690837;84;21336;-71
2021/08/18 04:04:38;;;;;;;;;;;;;;;22.23;72.15;100641.56;1691945;84;21812;-71
2021/08/18 04:07:10;;;;;;;14.58;10.85;;;;;;;22.95;70.34;100641.10;1689171;85;20187;-69
2021/08/18 04:09:44;;;;;;;13.83;9.58;;;;;;;23.65;68.07;100642.20;1687412;84;21200;-68
2021/08/18 04:12:17;;;;;;;14.38;10.03;;;;;;;24.39;65.54;100635.77;1688045;85;21374;-69
2021/08/18 04:14:51;;;;;;;13.78;8.98;;;;;;;25.08;62.98;100632.44;1674047;84;21206;-69
2021/08/18 04:17:25;;;;;;;14.45;10.30;;;;;;;25.76;60.91;100631.81;1673092;84;21186;-68
2021/08/18 04:19:59;;;;;;;12.78;9.30;;;;;;;26.44;58.51;100626.94;1687382;84;21207;-70
2021/08/18 04:22:33;;;;;;;13.90;8.85;;;;;;;27.05;56.55;100629.77;1687494;85;21194;-71
2021/08/18 04:25:09;;;;;;;13.00;9.03;;;;;;;27.62;54.66;100630.23;1674739;85;21373;-70
2021/08/18 04:27:42;;;;;;;12.13;8.58;;;;;;;28.16;53.00;100622.14;1672377;84;21242;-72
2021/08/18 04:30:16;;;;;;;13.83;9.45;;;;;;;28.72;51.53;100620.42;1672138;85;21148;-72
2021/08/18 04:32:50;;;;;;;15.65;9.05;;;;;;;29.25;49.75;100618.83;1672581;85;21227;-72
2021/08/18 04:35:23;;;;;;;23.07;11.20;;;;;;;29.74;48.49;100618.34;1688643;85;21342;-71
2021/08/18 04:38:03;;;;;;;12.37;8.18;;;;;;;30.26;47.01;100614.58;1689223;83;21314;-70
2021/08/18 04:40:36;;;;;;;12.10;7.95;;;;;;;30.81;45.56;100612.89;1713923;83;21208;-70
2021/08/18 04:43:14;;;;;;;12.50;8.10;;;;;;;31.33;44.25;100608.34;1705633;83;21342;-70
2021/08/18 04:45:49;;;;;;;20.27;10.05;;;;;;;31.84;42.88;100599.91;1672434;85;21347;-72
2021/08/18 04:48:22;;;;;;;;;;;;;;;32.33;41.30;100598.92;1674639;84;21350;-70
2021/08/18 04:50:55;;;;;;;15.80;8.30;;;;;;;32.75;40.17;100598.64;1676275;85;20214;-69
2021/08/18 04:53:30;;;;;;;20.68;8.58;;;;;;;33.18;39.13;100592.60;1701078;83;21249;-70
2021/08/18 04:56:04;;;;;;;17.35;9.15;;;;;;;33.64;37.78;100594.61;1688985;83;21204;-71
2021/08/18 04:58:37;;;;;;;14.07;7.97;;;;;;;34.05;36.43;100597.09;1686321;83;21223;-70
2021/08/18 05:01:11;;;;;;;12.68;8.30;;;;;;;34.48;35.84;100596.21;1688346;85;21319;-67
2021/08/18 05:03:44;;;;;;;13.20;8.58;;;;;;;34.93;34.82;100593.08;1728005;82;21188;-67
2021/08/18 05:10:27;;;;;;;15.15;8.70;;;;;;;35.76;33.41;100596.16;1737767;82;21244;-66
2021/08/18 05:13:00;;;;;;;16.27;9.00;;;;;;;36.34;31.61;100592.57;1737343;82;22146;-67
2021/08/18 05:19:45;;;;;;;13.60;8.90;;;;;;;37.00;30.64;100585.96;1737439;82;22170;-66
2021/08/18 05:26:27;;;;;;;11.85;9.25;;;;;;;37.70;29.21;100584.50;1741989;82;21183;-67
2021/08/18 05:29:01;;;;;;;17.67;9.45;;;;;;;38.12;28.78;100585.20;1736544;82;21322;-67
2021/08/18 05:31:34;;;;;;;19.07;10.25;;;;;;;38.61;28.21;100586.42;1737870;82;21323;-66
2021/08/18 05:34:07;;;;;;;17.50;9.40;;;;;;;39.09;27.57;100575.54;1736562;82;21330;-67
2021/08/18 05:36:40;;;;;;;15.23;9.95;;;;;;;39.46;26.69;100579.66;1737110;82;21584;-66
2021/08/18 05:39:13;;;;;;;16.17;9.78;;;;;;;39.70;26.39;100575.38;1736659;82;22097;-65
2021/08/18 05:41:47;;;;;;;13.32;9.73;;;;;;;40.02;25.90;100582.34;1736079;82;21236;-65
2021/08/18 05:44:21;;;;;;;23.47;15.23;;;;;;;40.28;25.53;100577.62;1736604;82;21370;-65
2021/08/18 05:51:07;;;;;;;20.82;11.28;;;;;;;40.89;24.88;100571.44;1742016;82;21133;-68
2021/08/18 05:53:40;;;;;;;22.27;11.93;;;;;;;41.31;23.96;100559.98;1737150;82;21327;-67
2021/08/18 05:56:18;;;;;;;15.75;10.78;;;;;;;41.37;23.30;100558.64;1738474;82;21326;-73
2021/08/18 05:58:53;;;;;;;16.85;10.43;;;;;;;41.43;23.24;100562.81;1737193;82;21204;-67
2021/08/18 06:01:26;;;;;;;17.12;10.93;;;;;;;41.51;23.12;100558.62;1737534;82;21299;-66
2021/08/18 06:03:59;;;;;;;13.88;10.85;;;;;;;41.76;23.11;100554.66;1738109;82;21382;-68
2021/08/18 06:06:36;;;;;;;18.70;11.63;;;;;;;42.06;22.58;100554.80;1741950;82;21358;-67
2021/08/18 06:09:11;;;;;;;19.15;10.93;;;;;;;42.33;22.23;100550.64;1740209;82;21243;-67
2021/08/18 06:11:45;;;;;;;13.80;11.03;;;;;;;42.61;21.87;100542.80;1740243;82;21294;-68
2021/08/18 06:14:19;;;;;;;17.05;11.97;;;;;;;42.75;21.46;100547.39;1747878;82;21239;-67
2021/08/18 06:16:53;;;;;;;17.12;10.95;;;;;;;42.99;21.07;100546.64;1742210;82;21232;-66
2021/08/18 06:19:26;;;;;;;19.75;11.08;;;;;;;43.21;20.62;100540.62;1740026;82;21200;-65
2021/08/18 06:22:00;;;;;;;19.70;11.80;;;;;;;43.53;20.14;100540.24;1740537;82;21181;-66
2021/08/18 06:24:43;;;;;;;18.35;11.03;;;;;;;43.86;20.02;100542.21;1752204;81;21351;-67
2021/08/18 06:27:16;;;;;;;18.42;11.70;;;;;;;44.25;19.19;100539.73;1752054;81;21206;-67
2021/08/18 06:29:51;;;;;;;15.32;11.03;;;;;;;44.69;18.62;100537.14;1752772;81;21343;-65
2021/08/18 06:32:24;;;;;;;13.60;11.00;;;;;;;44.98;18.51;100537.27;1752013;81;21383;-66
2021/08/18 06:34:58;;;;;;;13.30;10.58;;;;;;;44.99;17.49;100530.59;1752396;81;21311;-66
2021/08/18 06:37:33;;;;;;;14.60;10.53;;;;;;;44.99;17.32;100527.25;1752234;81;21221;-68
2021/08/18 06:40:09;;;;;;;15.35;10.65;;;;;;;45.25;17.08;100525.28;1757680;81;21328;-67
2021/08/18 06:42:44;;;;;;;14.55;11.43;;;;;;;45.66;16.11;100518.27;1753015;81;21308;-69
2021/08/18 06:45:17;;;;;;;13.05;10.63;;;;;;;46.10;15.96;100515.38;1752347;81;21467;-69
2021/08/18 06:47:51;;;;;;;12.37;9.90;;;;;;;46.30;15.20;100518.33;1753056;81;21336;-70
2021/08/18 06:50:25;;;;;;;12.05;9.95;;;;;;;46.31;14.71;100511.63;1754643;81;21343;-69
2021/08/18 06:52:58;;;;;;;13.53;10.13;;;;;;;46.43;14.33;100517.02;1752925;81;21276;-66
2021/08/18 06:55:32;;;;;;;15.85;10.65;;;;;;;46.61;14.21;100504.81;1752296;81;21378;-70
2021/08/18 06:58:05;;;;;;;16.10;10.43;;;;;;;46.96;14.19;100505.98;1754796;81;21543;-69
2021/08/18 07:00:39;;;;;;;14.47;10.15;;;;;;;47.29;13.64;100503.30;1754406;81;21221;-68
2021/08/18 07:03:12;;;;;;;12.23;9.90;;;;;;;47.63;13.05;100507.68;1759889;81;21277;-69
2021/08/18 07:05:48;;;;;;;14.53;9.95;;;;;;;47.93;13.06;100507.66;1750613;81;21292;-69
2021/08/18 07:08:22;;;;;;;16.62;9.35;;;;;;;48.21;12.16;100509.33;1747464;82;21244;-69
2021/08/18 07:10:55;;;;;;;10.48;9.40;;;;;;;48.34;11.68;100508.45;1748671;81;21190;-69
2021/08/18 07:13:29;;;;;;;11.57;9.53;;;;;;;48.20;11.42;100507.72;1746574;82;21177;-69
2021/08/18 07:16:02;;;;;;;17.73;10.00;;;;;;;48.08;11.58;100496.09;1747215;82;21206;-66
2021/08/18 07:18:36;;;;;;;18.50;10.00;;;;;;;48.13;11.40;100492.97;1747536;82;21193;-68
2021/08/18 07:21:09;;;;;;;12.65;9.43;;;;;;;48.18;10.82;100489.27;1749297;82;21363;-68
2021/08/18 07:23:42;;;;;;;13.10;11.15;;;;;;;48.14;12.35;100497.36;1749911;82;21415;-71
2021/08/18 07:26:15;;;;;;;13.45;9.63;;;;;;;48.41;11.59;100500.98;1752927;82;21316;-71
2021/08/18 07:28:48;;;;;;;14.68;9.95;;;;;;;48.78;11.78;100493.11;1750342;82;21856;-67
2021/08/18 07:31:22;;;;;;;11.03;8.78;;;;;;;49.25;11.56;100488.88;1747307;82;21444;-68
2021/08/18 07:33:55;;;;;;;10.65;8.93;;;;;;;49.59;10.00;100477.68;1747960;82;21181;-73
2021/08/18 07:36:28;;;;;;;11.35;8.85;;;;;;;49.61;10.42;100484.27;1749181;82;21205;-74
2021/08/18 07:39:01;;;;;;;9.58;8.55;;;;;;;49.64;10.56;100477.89;1749458;82;21828;-77
2021/08/18 07:41:34;;;;;;;14.25;9.25;;;;;;;49.76;9.12;100474.14;1749243;82;21244;-71
2021/08/18 07:44:08;;;;;;;12.05;9.25;;;;;;;49.51;9.62;100471.08;1739884;82;21165;-73
2021/08/18 07:46:41;;;;;;;14.23;8.70;;;;;;;49.16;10.07;100474.48;1734002;82;21368;-72
2021/08/18 07:49:14;;;;;;;11.20;8.80;;;;;;;48.73;10.12;100472.05;1735822;82;21850;-69
2021/08/18 07:51:48;;;;;;;11.45;8.60;;;;;;;48.10;10.61;100469.55;1734531;82;21200;-68
2021/08/18 07:54:21;;;;;;;15.80;8.80;;;;;;;47.68;10.65;100472.66;1732761;82;21273;-67
2021/08/18 07:56:54;;;;;;;18.90;8.80;;;;;;;47.29;10.69;100468.02;1731921;82;21310;-69
2021/08/18 07:59:27;;;;;;;11.15;8.70;;;;;;;47.21;10.70;100455.84;1734369;82;21299;-70
2021/08/18 08:02:00;;;;;;;11.48;8.63;;;;;;;47.62;10.25;100460.33;1733977;82;21180;-70
2021/08/18 08:04:35;;;;;;;11.75;8.75;;;;;;;48.03;10.42;100458.97;1734801;82;21193;-68
2021/08/18 08:07:08;;;;;;;10.10;8.10;;;;;;;48.30;9.86;100452.06;1733653;82;21288;-72
2021/08/18 08:13:51;;;;;;;9.43;8.40;;;;;;;48.68;9.65;100459.13;1738872;82;21104;-70
2021/08/18 08:16:24;;;;;;;11.55;8.05;;;;;;;48.40;9.40;100447.99;1734529;82;22196;-70
2021/08/18 08:18:58;;;;;;;9.98;8.25;;;;;;;47.96;9.48;100456.93;1731262;82;22020;-65
2021/08/18 08:21:31;;;;;;;15.70;8.58;;;;;;;47.45;9.26;100443.48;1732285;82;21382;-69
2021/08/18 08:24:05;;;;;;;13.98;8.68;;;;;;;47.18;10.14;100437.19;1734815;82;21354;-71
2021/08/18 08:30:49;;;;;;;9.83;8.00;;;;;;;47.15;9.43;100431.80;1731423;82;21231;-66
2021/08/18 08:33:22;;;;;;;11.10;8.05;;;;;;;46.94;9.84;100424.58;1732717;82;21326;-69
2021/08/18 08:35:56;;;;;;;9.70;8.05;;;;;;;47.05;9.91;100417.80;1733297;82;21288;-68
2021/08/18 08:38:29;;;;;;;15.90;8.75;;;;;;;47.19;9.74;100428.51;1735489;82;21172;-66
2021/08/18 08:41:02;;;;;;;11.28;8.30;;;;;;;46.86;10.19;100411.02;1731431;82;21303;-65
2021/08/18 08:43:35;;;;;;;15.78;8.65;;;;;;;46.44;10.10;100420.28;1732236;82;21729;-67
2021/08/18 08:46:10;;;;;;;11.25;8.10;;;;;;;45.94;10.23;100408.94;1732254;82;21636;-64
2021/08/18 08:48:43;;;;;;;12.05;8.35;;;;;;;45.40;10.55;100414.65;1732432;82;21291;-64
2021/08/18 08:51:17;;;;;;;14.43;8.65;;;;;;;44.95;10.93;100408.14;1731123;82;21184;-67
2021/08/18 08:53:51;;;;;;;13.00;8.40;;;;;;;44.49;11.13;100402.94;1732431;82;22144;-66
2021/08/18 08:56:24;;;;;;;16.42;10.93;;;;;;;44.18;10.87;100394.91;1732720;82;21306;-66
2021/08/18 08:58:58;;;;;;;9.83;7.75;;;;;;;43.94;11.32;100393.67;1731179;82;21239;-65
2021/08/18 09:04:47;;;;;;;14.98;8.20;;;;;;;43.62;11.39;100387.86;1738508;82;21511;-63
2021/08/18 09:07:24;;;;;;;13.90;8.65;;;;;;;43.76;11.76;100391.02;1738517;82;21377;-64
2021/08/18 09:09:59;;;;;;;11.00;8.18;;;;;;;43.68;11.03;100396.69;1738418;82;21384;-66
2021/08/18 09:12:36;;;;;;;11.97;8.48;;;;;;;43.37;11.53;100389.16;1737666;82;21296;-63
2021/08/18 09:15:25;;;;;;;9.45;7.90;;;;;;;43.11;11.46;100381.33;1737253;81;21197;-66
2021/08/18 09:17:58;;;;;;;12.15;8.50;;;;;;;42.87;11.78;100361.48;1737993;82;21340;-64
2021/08/18 09:20:31;;;;;;;13.22;8.98;;;;;;;42.56;12.10;100372.94;1738165;80;21221;-65
2021/08/18 09:23:04;;;;;;;12.65;8.63;;;;;;;42.23;11.91;100363.40;1737364;80;21315;-65
2021/08/18 09:25:42;;;;;;;12.30;8.75;;;;;;;41.76;11.74;100368.50;1741731;80;21284;-66
2021/08/18 09:32:32;;;;;;;17.15;9.53;;;;;;;41.17;12.66;100354.75;1729271;81;22159;-66
2021/08/18 09:35:13;;;;;;;16.57;8.68;;;;;;;40.92;12.69;100355.20;1726430;83;21215;-65
2021/08/18 09:38:02;;;;;;;12.88;8.00;;;;;;;40.83;12.59;100351.13;1730256;81;21318;-64
2021/08/18 09:40:42;;;;;;;15.58;8.95;;;;;;;40.70;12.84;100343.95;1701224;84;22127;-64
2021/08/18 09:43:26;;;;;;;14.38;8.63;;;;;;;40.53;12.91;100337.80;1715148;83;21181;-65
2021/08/18 09:46:06;;;;;;;14.07;8.58;;;;;;;40.29;12.98;100337.81;1730200;83;21327;-65
2021/08/18 09:48:42;;;;;;;14.95;8.98;;;;;;;39.98;13.02;100341.44;1733661;82;21200;-65
2021/08/18 09:51:17;;;;;;;16.40;9.93;;;;;;;39.51;13.37;100323.33;1729674;83;21589;-65
2021/08/18 09:53:53;;;;;;;14.05;9.33;;;;;;;39.14;13.70;100322.66;1723542;83;21209;-67
2021/08/18 09:56:27;;;;;;;14.87;10.28;;;;;;;38.72;14.27;100341.48;1729036;83;21304;-67
2021/08/18 10:03:12;;;;;;;15.38;9.20;;;;;;;38.33;14.86;100316.36;1728674;81;21196;-63
2021/08/18 10:09:56;;;;;;;19.48;9.80;;;;;;;37.95;15.50;100300.25;1727104;83;21396;-64
2021/08/18 10:12:31;;;;;;;19.30;9.83;;;;;;;37.74;15.80;100297.77;1732752;83;21391;-63
2021/08/18 10:19:15;;;;;;;20.68;11.25;;;;;;;37.30;16.09;100297.28;1727977;81;21299;-65
2021/08/18 10:21:49;;;;;;;16.10;10.05;;;;;;;37.15;16.85;100293.56;1727811;83;21229;-65
2021/08/18 10:24:38;;;;;;;18.82;10.05;;;;;;;37.17;16.17;100287.78;1727913;83;21346;-66
2021/08/18 10:27:12;;;;;;;19.05;10.45;;;;;;;37.17;16.56;100283.69;1728790;83;21626;-65
2021/08/18 10:29:46;;;;;;;16.32;10.35;;;;;;;37.10;16.17;100272.66;1727947;83;21378;-65
2021/08/18 10:32:20;;;;;;;21.87;10.98;;;;;;;37.00;16.61;100278.36;1727613;83;21618;-66
2021/08/18 10:34:53;;;;;;;21.48;10.68;;;;;;;36.86;16.61;100276.22;1729858;83;21359;-66
2021/08/18 10:37:28;;;;;;;15.03;10.25;;;;;;;36.76;16.84;100278.41;1730445;83;21328;-65
2021/08/18 10:40:06;;;;;;;14.35;9.93;;;;;;;36.66;16.84;100260.34;1728170;83;21220;-65
2021/08/18 10:42:42;;;;;;;17.62;10.63;;;;;;;36.59;16.68;100262.66;1725587;83;22189;-65
2021/08/18 10:45:36;;;;;;;16.05;10.78;;;;;;;36.49;16.70;100268.38;1727776;83;21204;-70
2021/08/18 10:48:05;;;;;;;20.60;12.70;;;;;;;36.36;16.82;100270.53;1728885;83;21504;-74
2021/08/18 10:50:42;;;;;;;18.57;11.30;;;;;;;36.19;17.54;100270.34;1729512;82;21194;-72
2021/08/18 10:53:31;;;;;;;19.57;10.32;;;;;;;36.06;17.87;100278.00;1730917;83;21820;-70
2021/08/18 10:56:34;;;;;;;18.20;11.12;;;;;;;35.94;17.76;100260.77;1731939;83;21283;-73
2021/08/18 10:59:28;;;;;;;;;;;;;;;35.85;17.89;100281.63;1708553;83;21371;-72
2021/08/18 11:02:01;;;;;;;19.42;10.05;;;;;;;35.74;18.24;100269.33;1692522;84;20380;-74
2021/08/18 11:04:50;;;;;;;19.23;9.43;;;;;;;35.65;18.25;100252.08;1694250;83;21199;-73
2021/08/18 11:07:22;;;;;;;15.95;10.38;;;;;;;35.64;18.54;100263.52;1728429;82;21295;-68
2021/08/18 11:10:03;;;;;;;16.97;9.55;;;;;;;35.55;18.07;100258.52;1719822;82;21218;-67
2021/08/18 11:12:50;;;;;;;15.53;9.40;;;;;;;35.47;18.12;100256.45;1741430;82;22036;-71
2021/08/18 11:15:32;;;;;;;16.80;9.80;;;;;;;35.48;18.40;100255.91;1741885;82;21200;-67
2021/08/18 11:18:06;;;;;;;20.80;9.68;;;;;;;35.48;18.30;100254.54;1742263;82;21216;-68
2021/08/18 11:20:41;;;;;;;21.80;10.80;;;;;;;35.41;18.62;100248.13;1743433;82;21323;-68
2021/08/18 11:23:14;;;;;;;19.30;9.85;;;;;;;35.39;18.70;100255.80;1726715;82;22094;-68
2021/08/18 11:25:48;;;;;;;15.65;10.30;;;;;;;35.35;18.42;100249.89;1741389;82;21192;-66
2021/08/18 11:28:23;;;;;;;15.03;10.23;;;;;;;35.25;19.28;100252.24;1742250;82;21161;-63
2021/08/18 11:31:00;;;;;;;17.57;10.23;;;;;;;35.15;19.29;100246.97;1741176;82;21985;-64
2021/08/18 11:33:34;;;;;;;13.32;9.50;;;;;;;35.07;19.34;100238.93;1740911;82;21646;-63
2021/08/18 11:36:15;;;;;;;19.65;10.43;;;;;;;35.03;19.34;100238.47;1741180;82;21311;-66
2021/08/18 11:39:00;;;;;;;17.75;11.30;;;;;;;34.98;19.82;100251.57;1742141;82;21326;-70
2021/08/18 11:41:43;;;;;;;21.73;11.30;;;;;;;34.88;19.92;100264.52;1740115;82;21403;-62
2021/08/18 11:44:32;;;;;;;23.55;11.35;;;;;;;34.69;19.68;100240.60;1739717;82;22193;-64
2021/08/18 11:47:12;;;;;;;16.37;10.50;;;;;;;34.51;20.42;100243.58;1744077;82;21201;-64
2021/08/18 11:49:49;;;;;;;17.40;10.05;;;;;;;34.39;20.41;100230.97;1742010;82;21290;-67
2021/08/18 11:52:25;;;;;;;14.98;9.60;;;;;;;34.30;20.47;100236.78;1721117;82;21494;-63
2021/08/18 11:55:01;;;;;;;17.82;9.73;;;;;;;34.20;20.59;100233.65;1742155;82;21307;-65
2021/08/18 11:57:35;;;;;;;16.02;9.88;;;;;;;34.15;20.67;100231.56;1742134;82;21219;-68
2021/08/18 12:00:10;;;;;;;15.50;9.58;;;;;;;34.12;20.47;100226.71;1741783;82;21213;-66
2021/08/18 12:02:43;;;;;;;15.00;10.20;;;;;;;34.08;20.84;100225.69;1719991;82;21185;-64
2021/08/18 12:05:17;;;;;;;16.80;8.90;;;;;;;34.05;21.21;100223.55;1721088;82;21217;-64
2021/08/18 12:07:52;;;;;;;16.37;9.48;;;;;;;34.01;21.25;100219.20;1698225;83;21299;-65
2021/08/18 12:10:26;;;;;;;16.67;10.32;;;;;;;34.01;21.47;100217.05;1675459;83;21238;-73
2021/08/18 12:17:09;;;;;;;17.05;9.80;;;;;;;34.03;21.96;100214.30;1709646;83;21216;-63
2021/08/18 12:23:43;;;;;;;15.43;9.80;;;;;;;34.09;22.23;100224.57;1710500;83;20233;-63
2021/08/18 12:26:34;;;;;;;17.73;9.38;;;;;;;34.02;21.49;100216.75;1709986;83;21323;-63
2021/08/18 12:29:09;;;;;;;15.98;9.35;;;;;;;33.98;21.73;100202.14;1710891;83;21310;-64
2021/08/18 12:42:05;;;;;;;16.57;9.68;;;;;;;33.80;21.73;100198.83;1711911;83;21184;-63
2021/08/18 12:44:39;;;;;;;13.55;8.73;;;;;;;33.71;21.75;100198.66;1711449;83;21314;-63
2021/08/18 12:47:14;;;;;;;16.07;9.00;;;;;;;33.69;21.72;100195.98;1711745;83;21219;-63
2021/08/18 12:49:50;;;;;;;20.00;9.98;;;;;;;33.65;21.73;100202.52;1712821;83;21298;-64
2021/08/18 12:52:23;;;;;;;17.05;9.75;;;;;;;33.61;21.71;100188.46;1711776;83;22063;-62